Terminal Aerodrome Forecast
Issued by NWS

Home | Current Version | Previous Version | Text Only | Print | Product List | Glossary On
Versions: 1 2 3 4 5 6 7 8 9 10 11 12 13 14 15 16
921
FTUS44 KBMX 271720
TAFEET
TAF
KEET 271720Z 2718/2818 30006KT P6SM SCT040
     FM280200 32002KT P6SM FEW050 FEW250=

USA.gov is the U.S. government's official web portal to all federal, state and local government web resources and services.